sensor_id;sensor_type;location;lat;lon;timestamp;P1;durP1;ratioP1;P2;durP2;ratioP2
23290;SDS011;11814;44.686;10.842;2023-02-03T00:00:20;16.25;;;9.50;;
23290;SDS011;11814;44.686;10.842;2023-02-03T00:02:45;18.65;;;9.20;;
23290;SDS011;11814;44.686;10.842;2023-02-03T00:05:11;14.35;;;8.55;;
23290;SDS011;11814;44.686;10.842;2023-02-03T00:07:37;18.40;;;9.38;;
23290;SDS011;11814;44.686;10.842;2023-02-03T00:10:04;21.73;;;10.30;;
23290;SDS011;11814;44.686;10.842;2023-02-03T00:12:31;18.30;;;8.88;;
23290;SDS011;11814;44.686;10.842;2023-02-03T00:14:59;16.60;;;8.48;;
23290;SDS011;11814;44.686;10.842;2023-02-03T00:17:25;17.52;;;9.35;;
23290;SDS011;11814;44.686;10.842;2023-02-03T00:19:51;19.33;;;9.85;;
23290;SDS011;11814;44.686;10.842;2023-02-03T00:22:17;19.38;;;9.98;;
23290;SDS011;11814;44.686;10.842;2023-02-03T00:24:49;19.70;;;9.05;;
23290;SDS011;11814;44.686;10.842;2023-02-03T00:27:15;17.85;;;9.32;;
23290;SDS011;11814;44.686;10.842;2023-02-03T00:29:40;22.48;;;10.65;;
23290;SDS011;11814;44.686;10.842;2023-02-03T00:32:06;19.42;;;9.93;;
23290;SDS011;11814;44.686;10.842;2023-02-03T00:34:32;15.65;;;9.20;;
23290;SDS011;11814;44.686;10.842;2023-02-03T00:36:58;16.77;;;8.60;;
23290;SDS011;11814;44.686;10.842;2023-02-03T00:39:23;17.27;;;8.98;;
23290;SDS011;11814;44.686;10.842;2023-02-03T00:41:49;16.75;;;9.20;;
23290;SDS011;11814;44.686;10.842;2023-02-03T00:44:15;15.10;;;8.70;;
23290;SDS011;11814;44.686;10.842;2023-02-03T00:46:40;15.75;;;9.18;;
23290;SDS011;11814;44.686;10.842;2023-02-03T00:49:06;16.30;;;8.75;;
23290;SDS011;11814;44.686;10.842;2023-02-03T00:51:32;12.35;;;8.25;;
23290;SDS011;11814;44.686;10.842;2023-02-03T00:53:58;20.63;;;9.55;;
23290;SDS011;11814;44.686;10.842;2023-02-03T00:56:24;17.80;;;8.50;;
23290;SDS011;11814;44.686;10.842;2023-02-03T00:58:50;14.18;;;8.23;;
23290;SDS011;11814;44.686;10.842;2023-02-03T01:01:16;14.13;;;7.72;;
23290;SDS011;11814;44.686;10.842;2023-02-03T01:03:42;13.80;;;7.70;;
23290;SDS011;11814;44.686;10.842;2023-02-03T01:06:12;17.30;;;7.95;;
23290;SDS011;11814;44.686;10.842;2023-02-03T01:08:38;15.80;;;8.35;;
23290;SDS011;11814;44.686;10.842;2023-02-03T01:11:08;16.55;;;7.70;;
23290;SDS011;11814;44.686;10.842;2023-02-03T01:13:35;14.48;;;8.38;;
23290;SDS011;11814;44.686;10.842;2023-02-03T01:16:01;15.23;;;7.80;;
23290;SDS011;11814;44.686;10.842;2023-02-03T01:18:27;17.38;;;8.27;;
23290;SDS011;11814;44.686;10.842;2023-02-03T01:20:53;14.13;;;8.10;;
23290;SDS011;11814;44.686;10.842;2023-02-03T01:23:19;9.85;;;6.53;;
23290;SDS011;11814;44.686;10.842;2023-02-03T01:25:44;13.05;;;7.07;;
23290;SDS011;11814;44.686;10.842;2023-02-03T01:28:10;12.82;;;7.80;;
23290;SDS011;11814;44.686;10.842;2023-02-03T01:30:36;13.40;;;7.47;;
23290;SDS011;11814;44.686;10.842;2023-02-03T01:33:01;13.60;;;7.88;;
23290;SDS011;11814;44.686;10.842;2023-02-03T01:35:27;14.30;;;7.88;;
23290;SDS011;11814;44.686;10.842;2023-02-03T01:37:53;11.63;;;7.40;;
23290;SDS011;11814;44.686;10.842;2023-02-03T01:40:19;13.02;;;7.00;;
23290;SDS011;11814;44.686;10.842;2023-02-03T01:42:44;17.75;;;7.32;;
23290;SDS011;11814;44.686;10.842;2023-02-03T01:45:10;20.45;;;7.32;;
23290;SDS011;11814;44.686;10.842;2023-02-03T01:52:33;16.48;;;6.43;;
23290;SDS011;11814;44.686;10.842;2023-02-03T01:55:01;18.13;;;7.07;;
23290;SDS011;11814;44.686;10.842;2023-02-03T01:57:31;18.65;;;7.20;;
23290;SDS011;11814;44.686;10.842;2023-02-03T02:00:00;15.38;;;8.30;;
23290;SDS011;11814;44.686;10.842;2023-02-03T02:02:28;19.48;;;8.00;;
23290;SDS011;11814;44.686;10.842;2023-02-03T02:07:31;15.75;;;7.47;;
23290;SDS011;11814;44.686;10.842;2023-02-03T02:09:59;16.30;;;7.13;;
23290;SDS011;11814;44.686;10.842;2023-02-03T02:12:26;15.40;;;7.97;;
23290;SDS011;11814;44.686;10.842;2023-02-03T02:14:52;12.18;;;6.43;;
23290;SDS011;11814;44.686;10.842;2023-02-03T02:28:21;13.40;;;5.75;;
23290;SDS011;11814;44.686;10.842;2023-02-03T02:30:53;12.73;;;6.53;;
23290;SDS011;11814;44.686;10.842;2023-02-03T02:36:07;11.73;;;5.60;;
23290;SDS011;11814;44.686;10.842;2023-02-03T02:41:38;10.30;;;6.10;;
23290;SDS011;11814;44.686;10.842;2023-02-03T02:44:23;12.82;;;5.60;;
23290;SDS011;11814;44.686;10.842;2023-02-03T02:46:58;10.32;;;5.50;;
23290;SDS011;11814;44.686;10.842;2023-02-03T02:52:00;13.68;;;6.22;;
23290;SDS011;11814;44.686;10.842;2023-02-03T02:54:29;10.45;;;6.35;;
23290;SDS011;11814;44.686;10.842;2023-02-03T02:57:01;13.32;;;5.78;;
23290;SDS011;11814;44.686;10.842;2023-02-03T02:59:29;10.77;;;5.35;;
23290;SDS011;11814;44.686;10.842;2023-02-03T03:01:55;14.13;;;6.53;;
23290;SDS011;11814;44.686;10.842;2023-02-03T03:04:22;12.27;;;6.00;;
23290;SDS011;11814;44.686;10.842;2023-02-03T03:06:54;14.95;;;5.93;;
23290;SDS011;11814;44.686;10.842;2023-02-03T03:09:31;13.18;;;6.38;;
23290;SDS011;11814;44.686;10.842;2023-02-03T03:12:05;15.15;;;6.32;;
23290;SDS011;11814;44.686;10.842;2023-02-03T03:14:31;9.07;;;5.88;;
23290;SDS011;11814;44.686;10.842;2023-02-03T03:17:01;13.35;;;5.63;;
23290;SDS011;11814;44.686;10.842;2023-02-03T03:19:34;11.48;;;5.47;;
23290;SDS011;11814;44.686;10.842;2023-02-03T03:22:04;9.38;;;5.53;;
23290;SDS011;11814;44.686;10.842;2023-02-03T03:24:42;8.88;;;5.20;;
23290;SDS011;11814;44.686;10.842;2023-02-03T03:27:22;8.73;;;4.82;;
23290;SDS011;11814;44.686;10.842;2023-02-03T03:29:54;10.07;;;5.60;;
23290;SDS011;11814;44.686;10.842;2023-02-03T03:32:33;10.63;;;5.70;;
23290;SDS011;11814;44.686;10.842;2023-02-03T03:34:59;13.25;;;5.43;;
23290;SDS011;11814;44.686;10.842;2023-02-03T03:37:37;10.55;;;5.38;;
23290;SDS011;11814;44.686;10.842;2023-02-03T03:40:20;13.77;;;5.82;;
23290;SDS011;11814;44.686;10.842;2023-02-03T03:42:56;13.80;;;5.88;;
23290;SDS011;11814;44.686;10.842;2023-02-03T03:50:35;11.00;;;6.68;;
23290;SDS011;11814;44.686;10.842;2023-02-03T03:53:07;10.05;;;5.88;;
23290;SDS011;11814;44.686;10.842;2023-02-03T03:55:34;11.98;;;5.97;;
23290;SDS011;11814;44.686;10.842;2023-02-03T03:58:03;11.77;;;6.30;;
23290;SDS011;11814;44.686;10.842;2023-02-03T04:00:33;11.77;;;5.72;;
23290;SDS011;11814;44.686;10.842;2023-02-03T04:03:04;11.90;;;6.30;;
23290;SDS011;11814;44.686;10.842;2023-02-03T04:05:56;14.65;;;6.43;;
23290;SDS011;11814;44.686;10.842;2023-02-03T04:08:22;11.77;;;6.25;;
23290;SDS011;11814;44.686;10.842;2023-02-03T04:10:48;10.25;;;5.85;;
23290;SDS011;11814;44.686;10.842;2023-02-03T04:13:13;10.02;;;6.05;;
23290;SDS011;11814;44.686;10.842;2023-02-03T04:15:40;11.05;;;6.60;;
23290;SDS011;11814;44.686;10.842;2023-02-03T04:18:06;9.90;;;6.72;;
23290;SDS011;11814;44.686;10.842;2023-02-03T04:20:36;11.25;;;6.82;;
23290;SDS011;11814;44.686;10.842;2023-02-03T04:23:01;12.32;;;6.60;;
23290;SDS011;11814;44.686;10.842;2023-02-03T04:25:27;15.38;;;7.43;;
23290;SDS011;11814;44.686;10.842;2023-02-03T04:27:53;13.45;;;7.38;;
23290;SDS011;11814;44.686;10.842;2023-02-03T04:30:19;12.02;;;8.25;;
23290;SDS011;11814;44.686;10.842;2023-02-03T04:32:45;14.13;;;7.82;;
23290;SDS011;11814;44.686;10.842;2023-02-03T04:35:11;13.70;;;6.95;;
23290;SDS011;11814;44.686;10.842;2023-02-03T04:37:38;13.13;;;7.20;;
23290;SDS011;11814;44.686;10.842;2023-02-03T04:40:04;16.20;;;7.35;;
23290;SDS011;11814;44.686;10.842;2023-02-03T04:42:30;10.25;;;7.00;;
23290;SDS011;11814;44.686;10.842;2023-02-03T04:44:56;12.93;;;7.25;;
23290;SDS011;11814;44.686;10.842;2023-02-03T04:47:22;10.80;;;6.68;;
23290;SDS011;11814;44.686;10.842;2023-02-03T04:49:47;14.85;;;7.68;;
23290;SDS011;11814;44.686;10.842;2023-02-03T04:52:13;12.48;;;6.80;;
23290;SDS011;11814;44.686;10.842;2023-02-03T04:54:39;14.55;;;6.88;;
23290;SDS011;11814;44.686;10.842;2023-02-03T04:57:05;17.10;;;7.30;;
23290;SDS011;11814;44.686;10.842;2023-02-03T04:59:31;12.88;;;6.53;;
23290;SDS011;11814;44.686;10.842;2023-02-03T05:01:57;11.93;;;6.88;;
23290;SDS011;11814;44.686;10.842;2023-02-03T05:04:25;11.40;;;6.93;;
23290;SDS011;11814;44.686;10.842;2023-02-03T05:06:51;16.20;;;7.85;;
23290;SDS011;11814;44.686;10.842;2023-02-03T05:09:16;15.65;;;7.40;;
23290;SDS011;11814;44.686;10.842;2023-02-03T05:11:42;13.55;;;7.35;;
23290;SDS011;11814;44.686;10.842;2023-02-03T05:14:08;16.40;;;8.38;;
23290;SDS011;11814;44.686;10.842;2023-02-03T05:16:34;14.57;;;8.75;;
23290;SDS011;11814;44.686;10.842;2023-02-03T05:18:59;18.77;;;9.48;;
23290;SDS011;11814;44.686;10.842;2023-02-03T05:21:25;14.27;;;9.25;;
23290;SDS011;11814;44.686;10.842;2023-02-03T05:23:51;14.80;;;8.48;;
23290;SDS011;11814;44.686;10.842;2023-02-03T05:26:17;14.57;;;8.38;;
23290;SDS011;11814;44.686;10.842;2023-02-03T05:28:42;14.82;;;8.65;;
23290;SDS011;11814;44.686;10.842;2023-02-03T05:31:08;17.02;;;8.23;;
23290;SDS011;11814;44.686;10.842;2023-02-03T05:33:34;17.92;;;7.28;;
23290;SDS011;11814;44.686;10.842;2023-02-03T05:36:00;18.80;;;8.05;;
23290;SDS011;11814;44.686;10.842;2023-02-03T05:38:25;20.13;;;8.50;;
23290;SDS011;11814;44.686;10.842;2023-02-03T05:40:51;17.95;;;8.05;;
23290;SDS011;11814;44.686;10.842;2023-02-03T05:43:36;20.55;;;8.48;;
23290;SDS011;11814;44.686;10.842;2023-02-03T05:46:02;14.20;;;8.30;;
23290;SDS011;11814;44.686;10.842;2023-02-03T05:48:29;16.15;;;9.35;;
23290;SDS011;11814;44.686;10.842;2023-02-03T05:50:55;16.90;;;9.18;;
23290;SDS011;11814;44.686;10.842;2023-02-03T05:53:21;20.75;;;9.27;;
23290;SDS011;11814;44.686;10.842;2023-02-03T05:55:47;14.93;;;8.60;;
23290;SDS011;11814;44.686;10.842;2023-02-03T05:58:13;24.45;;;9.40;;
23290;SDS011;11814;44.686;10.842;2023-02-03T06:00:39;31.10;;;11.95;;
23290;SDS011;11814;44.686;10.842;2023-02-03T06:03:04;26.98;;;12.00;;
23290;SDS011;11814;44.686;10.842;2023-02-03T06:05:31;21.45;;;11.43;;
23290;SDS011;11814;44.686;10.842;2023-02-03T06:07:58;26.48;;;12.95;;
23290;SDS011;11814;44.686;10.842;2023-02-03T06:10:24;51.90;;;15.52;;
23290;SDS011;11814;44.686;10.842;2023-02-03T06:12:56;34.28;;;14.00;;
23290;SDS011;11814;44.686;10.842;2023-02-03T06:15:22;29.55;;;14.50;;
23290;SDS011;11814;44.686;10.842;2023-02-03T06:17:48;22.30;;;12.43;;
23290;SDS011;11814;44.686;10.842;2023-02-03T06:20:15;21.73;;;12.50;;
23290;SDS011;11814;44.686;10.842;2023-02-03T06:22:43;23.65;;;12.05;;
23290;SDS011;11814;44.686;10.842;2023-02-03T06:25:09;28.67;;;13.07;;
23290;SDS011;11814;44.686;10.842;2023-02-03T06:27:35;22.27;;;12.40;;
23290;SDS011;11814;44.686;10.842;2023-02-03T06:30:02;21.08;;;12.50;;
23290;SDS011;11814;44.686;10.842;2023-02-03T06:32:28;19.27;;;11.27;;
23290;SDS011;11814;44.686;10.842;2023-02-03T06:34:53;20.75;;;12.15;;
23290;SDS011;11814;44.686;10.842;2023-02-03T06:37:19;27.05;;;13.85;;
23290;SDS011;11814;44.686;10.842;2023-02-03T06:39:45;27.00;;;14.43;;
23290;SDS011;11814;44.686;10.842;2023-02-03T06:42:10;23.83;;;14.27;;
23290;SDS011;11814;44.686;10.842;2023-02-03T06:44:36;35.10;;;16.70;;
23290;SDS011;11814;44.686;10.842;2023-02-03T06:47:02;34.50;;;17.00;;
23290;SDS011;11814;44.686;10.842;2023-02-03T06:49:28;38.40;;;18.42;;
23290;SDS011;11814;44.686;10.842;2023-02-03T06:51:54;42.25;;;18.13;;
23290;SDS011;11814;44.686;10.842;2023-02-03T06:54:20;36.60;;;18.25;;
23290;SDS011;11814;44.686;10.842;2023-02-03T06:56:46;35.78;;;19.55;;
23290;SDS011;11814;44.686;10.842;2023-02-03T06:59:12;39.33;;;20.80;;
23290;SDS011;11814;44.686;10.842;2023-02-03T07:01:38;37.38;;;20.40;;
23290;SDS011;11814;44.686;10.842;2023-02-03T07:04:04;49.42;;;25.80;;
23290;SDS011;11814;44.686;10.842;2023-02-03T07:06:30;47.38;;;28.83;;
23290;SDS011;11814;44.686;10.842;2023-02-03T07:09:01;55.75;;;32.03;;
23290;SDS011;11814;44.686;10.842;2023-02-03T07:11:29;64.85;;;34.88;;
23290;SDS011;11814;44.686;10.842;2023-02-03T07:13:55;64.72;;;35.45;;
23290;SDS011;11814;44.686;10.842;2023-02-03T07:16:21;68.07;;;36.97;;
23290;SDS011;11814;44.686;10.842;2023-02-03T07:18:47;65.10;;;37.67;;
23290;SDS011;11814;44.686;10.842;2023-02-03T07:21:14;64.55;;;37.88;;
23290;SDS011;11814;44.686;10.842;2023-02-03T07:23:40;71.70;;;39.45;;
23290;SDS011;11814;44.686;10.842;2023-02-03T07:26:06;65.05;;;39.75;;
23290;SDS011;11814;44.686;10.842;2023-02-03T07:28:33;67.78;;;40.83;;
23290;SDS011;11814;44.686;10.842;2023-02-03T07:30:59;68.40;;;41.72;;
23290;SDS011;11814;44.686;10.842;2023-02-03T07:33:26;71.55;;;41.53;;
23290;SDS011;11814;44.686;10.842;2023-02-03T07:35:55;71.03;;;43.72;;
23290;SDS011;11814;44.686;10.842;2023-02-03T07:38:22;75.53;;;44.72;;
23290;SDS011;11814;44.686;10.842;2023-02-03T07:40:49;78.20;;;47.45;;
23290;SDS011;11814;44.686;10.842;2023-02-03T07:43:15;79.68;;;47.72;;
23290;SDS011;11814;44.686;10.842;2023-02-03T07:45:41;77.53;;;48.95;;
23290;SDS011;11814;44.686;10.842;2023-02-03T07:48:07;76.03;;;46.00;;
23290;SDS011;11814;44.686;10.842;2023-02-03T07:50:33;86.80;;;50.67;;
23290;SDS011;11814;44.686;10.842;2023-02-03T07:52:59;84.47;;;51.75;;
23290;SDS011;11814;44.686;10.842;2023-02-03T07:55:25;95.85;;;53.25;;
23290;SDS011;11814;44.686;10.842;2023-02-03T07:57:52;83.65;;;51.20;;
23290;SDS011;11814;44.686;10.842;2023-02-03T08:00:19;89.88;;;51.83;;
23290;SDS011;11814;44.686;10.842;2023-02-03T08:02:45;86.95;;;53.22;;
23290;SDS011;11814;44.686;10.842;2023-02-03T08:05:11;85.60;;;52.65;;
23290;SDS011;11814;44.686;10.842;2023-02-03T08:07:37;95.35;;;53.60;;
23290;SDS011;11814;44.686;10.842;2023-02-03T08:10:04;84.05;;;51.10;;
23290;SDS011;11814;44.686;10.842;2023-02-03T08:12:30;86.43;;;50.78;;
23290;SDS011;11814;44.686;10.842;2023-02-03T08:14:55;89.30;;;53.15;;
23290;SDS011;11814;44.686;10.842;2023-02-03T08:17:21;99.65;;;54.05;;
23290;SDS011;11814;44.686;10.842;2023-02-03T08:19:47;104.13;;;53.97;;
23290;SDS011;11814;44.686;10.842;2023-02-03T08:22:12;88.72;;;52.55;;
23290;SDS011;11814;44.686;10.842;2023-02-03T08:24:44;81.90;;;51.67;;
23290;SDS011;11814;44.686;10.842;2023-02-03T08:27:15;98.53;;;57.15;;
23290;SDS011;11814;44.686;10.842;2023-02-03T08:29:42;211.48;;;61.03;;
23290;SDS011;11814;44.686;10.842;2023-02-03T08:32:12;122.70;;;62.15;;
23290;SDS011;11814;44.686;10.842;2023-02-03T08:34:40;190.32;;;68.60;;
23290;SDS011;11814;44.686;10.842;2023-02-03T08:37:06;178.77;;;71.85;;
23290;SDS011;11814;44.686;10.842;2023-02-03T08:39:32;195.50;;;75.38;;
23290;SDS011;11814;44.686;10.842;2023-02-03T08:41:59;239.35;;;79.05;;
23290;SDS011;11814;44.686;10.842;2023-02-03T08:44:25;361.90;;;84.38;;
23290;SDS011;11814;44.686;10.842;2023-02-03T08:46:51;218.20;;;80.70;;
23290;SDS011;11814;44.686;10.842;2023-02-03T08:49:17;206.43;;;78.18;;
23290;SDS011;11814;44.686;10.842;2023-02-03T08:51:45;178.43;;;75.20;;
23290;SDS011;11814;44.686;10.842;2023-02-03T08:54:11;357.80;;;84.03;;
23290;SDS011;11814;44.686;10.842;2023-02-03T08:56:37;306.42;;;83.38;;
23290;SDS011;11814;44.686;10.842;2023-02-03T08:59:03;237.55;;;84.03;;
23290;SDS011;11814;44.686;10.842;2023-02-03T09:01:29;220.32;;;87.28;;
23290;SDS011;11814;44.686;10.842;2023-02-03T09:03:55;247.63;;;91.20;;
23290;SDS011;11814;44.686;10.842;2023-02-03T09:06:21;246.75;;;86.50;;
23290;SDS011;11814;44.686;10.842;2023-02-03T09:08:47;207.55;;;79.75;;
23290;SDS011;11814;44.686;10.842;2023-02-03T09:11:13;217.68;;;76.53;;
23290;SDS011;11814;44.686;10.842;2023-02-03T09:13:41;218.70;;;75.85;;
23290;SDS011;11814;44.686;10.842;2023-02-03T09:16:10;212.68;;;73.07;;
23290;SDS011;11814;44.686;10.842;2023-02-03T09:18:42;194.38;;;73.43;;
23290;SDS011;11814;44.686;10.842;2023-02-03T09:21:10;222.65;;;77.93;;
23290;SDS011;11814;44.686;10.842;2023-02-03T09:23:37;212.65;;;75.50;;
23290;SDS011;11814;44.686;10.842;2023-02-03T09:26:04;208.20;;;73.75;;
23290;SDS011;11814;44.686;10.842;2023-02-03T09:28:32;264.08;;;79.43;;
23290;SDS011;11814;44.686;10.842;2023-02-03T09:31:02;225.23;;;74.72;;
23290;SDS011;11814;44.686;10.842;2023-02-03T09:33:29;503.02;;;92.88;;
23290;SDS011;11814;44.686;10.842;2023-02-03T09:35:55;295.85;;;77.80;;
23290;SDS011;11814;44.686;10.842;2023-02-03T09:38:22;311.25;;;85.43;;
23290;SDS011;11814;44.686;10.842;2023-02-03T09:40:52;227.48;;;82.22;;
23290;SDS011;11814;44.686;10.842;2023-02-03T09:43:59;197.50;;;74.45;;
23290;SDS011;11814;44.686;10.842;2023-02-03T09:47:17;236.00;;;77.95;;
23290;SDS011;11814;44.686;10.842;2023-02-03T09:49:38;191.43;;;73.85;;
23290;SDS011;11814;44.686;10.842;2023-02-03T09:52:16;187.88;;;75.03;;
23290;SDS011;11814;44.686;10.842;2023-02-03T09:57:46;189.27;;;76.13;;
23290;SDS011;11814;44.686;10.842;2023-02-03T10:06:09;212.18;;;79.20;;
23290;SDS011;11814;44.686;10.842;2023-02-03T10:19:59;182.68;;;77.72;;
23290;SDS011;11814;44.686;10.842;2023-02-03T10:22:27;180.43;;;73.88;;
23290;SDS011;11814;44.686;10.842;2023-02-03T10:24:56;194.63;;;78.15;;
23290;SDS011;11814;44.686;10.842;2023-02-03T10:27:38;204.75;;;78.30;;
23290;SDS011;11814;44.686;10.842;2023-02-03T10:32:44;192.32;;;75.32;;
23290;SDS011;11814;44.686;10.842;2023-02-03T10:35:10;179.75;;;71.82;;
23290;SDS011;11814;44.686;10.842;2023-02-03T10:37:42;169.73;;;71.25;;
23290;SDS011;11814;44.686;10.842;2023-02-03T10:40:11;177.13;;;73.78;;
23290;SDS011;11814;44.686;10.842;2023-02-03T10:42:38;181.15;;;75.30;;
23290;SDS011;11814;44.686;10.842;2023-02-03T10:45:24;185.13;;;76.22;;
23290;SDS011;11814;44.686;10.842;2023-02-03T10:47:50;206.15;;;80.00;;
23290;SDS011;11814;44.686;10.842;2023-02-03T10:50:20;219.70;;;83.22;;
23290;SDS011;11814;44.686;10.842;2023-02-03T10:52:48;215.85;;;82.75;;
23290;SDS011;11814;44.686;10.842;2023-02-03T10:57:48;250.05;;;89.43;;
23290;SDS011;11814;44.686;10.842;2023-02-03T11:02:53;247.90;;;89.78;;
23290;SDS011;11814;44.686;10.842;2023-02-03T11:05:25;240.50;;;87.93;;
23290;SDS011;11814;44.686;10.842;2023-02-03T11:07:51;257.17;;;92.03;;
23290;SDS011;11814;44.686;10.842;2023-02-03T11:10:28;240.95;;;90.28;;
23290;SDS011;11814;44.686;10.842;2023-02-03T11:16:05;279.65;;;98.30;;
23290;SDS011;11814;44.686;10.842;2023-02-03T11:21:40;260.15;;;93.97;;
23290;SDS011;11814;44.686;10.842;2023-02-03T11:26:33;240.57;;;93.78;;
23290;SDS011;11814;44.686;10.842;2023-02-03T11:29:31;244.95;;;93.13;;
23290;SDS011;11814;44.686;10.842;2023-02-03T11:34:46;241.32;;;94.47;;
23290;SDS011;11814;44.686;10.842;2023-02-03T11:37:40;234.98;;;95.00;;
23290;SDS011;11814;44.686;10.842;2023-02-03T11:42:35;227.02;;;92.38;;
23290;SDS011;11814;44.686;10.842;2023-02-03T11:47:49;217.43;;;92.30;;
23290;SDS011;11814;44.686;10.842;2023-02-03T11:55:57;209.88;;;90.53;;
23290;SDS011;11814;44.686;10.842;2023-02-03T11:58:32;218.85;;;91.00;;
23290;SDS011;11814;44.686;10.842;2023-02-03T12:06:59;197.88;;;88.72;;
23290;SDS011;11814;44.686;10.842;2023-02-03T12:23:17;198.65;;;90.53;;
23290;SDS011;11814;44.686;10.842;2023-02-03T12:25:59;205.48;;;87.65;;
23290;SDS011;11814;44.686;10.842;2023-02-03T12:42:04;187.57;;;86.60;;
23290;SDS011;11814;44.686;10.842;2023-02-03T12:44:46;183.95;;;86.38;;
23290;SDS011;11814;44.686;10.842;2023-02-03T12:47:36;193.45;;;86.93;;
23290;SDS011;11814;44.686;10.842;2023-02-03T12:52:50;176.52;;;80.20;;
23290;SDS011;11814;44.686;10.842;2023-02-03T12:57:56;157.80;;;77.80;;
23290;SDS011;11814;44.686;10.842;2023-02-03T13:00:44;167.07;;;81.82;;
23290;SDS011;11814;44.686;10.842;2023-02-03T13:06:25;153.70;;;76.57;;
23290;SDS011;11814;44.686;10.842;2023-02-03T13:11:47;155.73;;;76.22;;
23290;SDS011;11814;44.686;10.842;2023-02-03T13:15:10;154.45;;;74.97;;
23290;SDS011;11814;44.686;10.842;2023-02-03T13:20:24;152.18;;;75.72;;
23290;SDS011;11814;44.686;10.842;2023-02-03T13:22:55;146.55;;;73.50;;
23290;SDS011;11814;44.686;10.842;2023-02-03T13:25:26;148.65;;;73.57;;
23290;SDS011;11814;44.686;10.842;2023-02-03T13:28:10;147.55;;;72.30;;
23290;SDS011;11814;44.686;10.842;2023-02-03T13:36:56;120.03;;;62.22;;
23290;SDS011;11814;44.686;10.842;2023-02-03T13:39:35;114.63;;;58.97;;
23290;SDS011;11814;44.686;10.842;2023-02-03T13:42:23;127.93;;;62.58;;
23290;SDS011;11814;44.686;10.842;2023-02-03T13:47:46;124.60;;;62.55;;
23290;SDS011;11814;44.686;10.842;2023-02-03T13:50:26;122.78;;;61.50;;
23290;SDS011;11814;44.686;10.842;2023-02-03T13:53:01;128.10;;;62.03;;
23290;SDS011;11814;44.686;10.842;2023-02-03T13:57:57;120.78;;;58.33;;
23290;SDS011;11814;44.686;10.842;2023-02-03T14:05:50;123.82;;;60.88;;
23290;SDS011;11814;44.686;10.842;2023-02-03T14:13:54;119.63;;;59.00;;
23290;SDS011;11814;44.686;10.842;2023-02-03T14:16:33;129.05;;;62.15;;
23290;SDS011;11814;44.686;10.842;2023-02-03T14:21:54;121.65;;;58.15;;
23290;SDS011;11814;44.686;10.842;2023-02-03T14:24:21;116.13;;;56.33;;
23290;SDS011;11814;44.686;10.842;2023-02-03T14:26:51;115.40;;;59.65;;
23290;SDS011;11814;44.686;10.842;2023-02-03T14:29:32;120.82;;;59.40;;
23290;SDS011;11814;44.686;10.842;2023-02-03T14:32:03;124.85;;;58.85;;
23290;SDS011;11814;44.686;10.842;2023-02-03T14:34:44;117.65;;;59.22;;
23290;SDS011;11814;44.686;10.842;2023-02-03T14:45:22;129.85;;;63.13;;
23290;SDS011;11814;44.686;10.842;2023-02-03T14:59:09;127.70;;;63.25;;
23290;SDS011;11814;44.686;10.842;2023-02-03T15:04:20;127.35;;;62.00;;
23290;SDS011;11814;44.686;10.842;2023-02-03T15:06:48;139.68;;;64.72;;
23290;SDS011;11814;44.686;10.842;2023-02-03T15:09:24;138.73;;;67.88;;
23290;SDS011;11814;44.686;10.842;2023-02-03T15:12:21;133.20;;;66.15;;
23290;SDS011;11814;44.686;10.842;2023-02-03T15:14:50;134.82;;;64.75;;
23290;SDS011;11814;44.686;10.842;2023-02-03T15:19:49;143.15;;;64.68;;
23290;SDS011;11814;44.686;10.842;2023-02-03T15:22:23;140.65;;;67.15;;
23290;SDS011;11814;44.686;10.842;2023-02-03T15:25:01;133.70;;;63.63;;
23290;SDS011;11814;44.686;10.842;2023-02-03T15:27:29;129.48;;;61.10;;
23290;SDS011;11814;44.686;10.842;2023-02-03T15:29:56;125.78;;;60.88;;
23290;SDS011;11814;44.686;10.842;2023-02-03T15:32:24;115.60;;;57.47;;
23290;SDS011;11814;44.686;10.842;2023-02-03T15:34:54;112.38;;;55.92;;
23290;SDS011;11814;44.686;10.842;2023-02-03T15:37:26;116.70;;;57.85;;
23290;SDS011;11814;44.686;10.842;2023-02-03T15:40:11;111.55;;;55.75;;
23290;SDS011;11814;44.686;10.842;2023-02-03T15:48:34;128.43;;;61.85;;
23290;SDS011;11814;44.686;10.842;2023-02-03T15:51:04;130.18;;;62.63;;
23290;SDS011;11814;44.686;10.842;2023-02-03T15:54:00;131.43;;;62.85;;
23290;SDS011;11814;44.686;10.842;2023-02-03T15:56:37;128.02;;;61.58;;
23290;SDS011;11814;44.686;10.842;2023-02-03T15:59:17;124.88;;;58.92;;
23290;SDS011;11814;44.686;10.842;2023-02-03T16:01:46;128.98;;;62.28;;
23290;SDS011;11814;44.686;10.842;2023-02-03T16:04:12;134.57;;;62.22;;
23290;SDS011;11814;44.686;10.842;2023-02-03T16:06:38;129.75;;;62.72;;
23290;SDS011;11814;44.686;10.842;2023-02-03T16:09:54;129.75;;;64.88;;
23290;SDS011;11814;44.686;10.842;2023-02-03T16:14:48;132.90;;;62.10;;
23290;SDS011;11814;44.686;10.842;2023-02-03T16:25:14;135.73;;;64.07;;
23290;SDS011;11814;44.686;10.842;2023-02-03T16:27:44;133.35;;;64.07;;
23290;SDS011;11814;44.686;10.842;2023-02-03T16:30:37;131.85;;;64.90;;
23290;SDS011;11814;44.686;10.842;2023-02-03T16:33:22;142.23;;;64.93;;
23290;SDS011;11814;44.686;10.842;2023-02-03T16:36:12;147.85;;;69.07;;
23290;SDS011;11814;44.686;10.842;2023-02-03T16:38:57;138.73;;;64.40;;
23290;SDS011;11814;44.686;10.842;2023-02-03T16:41:44;134.50;;;61.95;;
23290;SDS011;11814;44.686;10.842;2023-02-03T16:44:28;142.52;;;64.25;;
23290;SDS011;11814;44.686;10.842;2023-02-03T16:47:23;141.45;;;66.13;;
23290;SDS011;11814;44.686;10.842;2023-02-03T16:50:11;151.10;;;65.60;;
23290;SDS011;11814;44.686;10.842;2023-02-03T16:53:08;147.15;;;65.50;;
23290;SDS011;11814;44.686;10.842;2023-02-03T16:55:38;144.65;;;67.85;;
23290;SDS011;11814;44.686;10.842;2023-02-03T16:58:04;146.35;;;65.15;;
23290;SDS011;11814;44.686;10.842;2023-02-03T17:00:30;154.23;;;65.55;;
23290;SDS011;11814;44.686;10.842;2023-02-03T17:02:56;144.25;;;68.15;;
23290;SDS011;11814;44.686;10.842;2023-02-03T17:05:21;158.20;;;68.47;;
23290;SDS011;11814;44.686;10.842;2023-02-03T17:07:47;141.43;;;64.47;;
23290;SDS011;11814;44.686;10.842;2023-02-03T17:10:15;134.02;;;64.25;;
23290;SDS011;11814;44.686;10.842;2023-02-03T17:12:41;148.70;;;63.53;;
23290;SDS011;11814;44.686;10.842;2023-02-03T17:15:06;145.02;;;66.07;;
23290;SDS011;11814;44.686;10.842;2023-02-03T17:17:33;142.88;;;64.07;;
23290;SDS011;11814;44.686;10.842;2023-02-03T17:19:58;134.50;;;64.22;;
23290;SDS011;11814;44.686;10.842;2023-02-03T17:22:25;150.65;;;68.00;;
23290;SDS011;11814;44.686;10.842;2023-02-03T17:24:51;162.15;;;69.60;;
23290;SDS011;11814;44.686;10.842;2023-02-03T17:27:17;142.20;;;68.05;;
23290;SDS011;11814;44.686;10.842;2023-02-03T17:29:43;150.13;;;69.97;;
23290;SDS011;11814;44.686;10.842;2023-02-03T17:32:09;157.50;;;67.97;;
23290;SDS011;11814;44.686;10.842;2023-02-03T17:34:39;154.43;;;70.50;;
23290;SDS011;11814;44.686;10.842;2023-02-03T17:37:05;168.13;;;75.13;;
23290;SDS011;11814;44.686;10.842;2023-02-03T17:39:31;165.73;;;73.07;;